Wiarton, Ontario

10:06 AM EDT on 四月 28, 2017 (GMT -0400)
Wiarton | | Change Station

高度 728 ft 44.75 °N, 81.10 °W | Updated 1 hour ago

Overcast
45 °F
体感気温 38 °F
13
風 変数 風 から 西南西
Gusts 21 Mph

今日
高い -- | 低 -- °F
--% 降水確率
昨日
高い -- | 低 -- °F
Precip. -- インチ
気圧 29.93 インチ
視程 15.0 マイル
曇 2500 ft
体感気温(寒さ) 38 °F
露点温度 37 °F
湿度 76%
降水 0.00 インチ
積雪深 利用不可。
6:18 AM 8:26 PM
三日月, 6% visible
METAR CYVV 281300Z 24011G18KT 210V280 15SM OVC025 07/03 A2990 RMK SC8 SLP133
気圧 29.93 インチ
視程 15.0 マイル
曇 2500 ft
体感気温(寒さ) 38 °F
露点温度 37 °F
湿度 76%
降水 0.00 インチ
積雪深 利用不可。
6:18 AM 8:26 PM
三日月, 6% visible
METAR CYVV 281300Z 24011G18KT 210V280 15SM OVC025 07/03 A2990 RMK SC8 SLP133

Get Severe Weather Alerts

Thanks for signing up!

Be on the lookout for a verification email in your inbox.

You'll start receiving the daily forecast at 8 AM.

×

10-Day Weather Forecast

Almanac

天文

Apr. 28, 2017 入り
実時間
常用薄明
航海薄明
天文薄明
可視光の長さ
可照時間
Tomorrow will be .
, % of the Moon is Illuminated

今日の極値

Country Highs Country Lows

Community

WunderBlog® & News

Nearby

空気品質

  空気品質 大気質指数 汚染物質
Not available.

積雪深

Station Depth 高度

地震活動

Distance Mag. Time & Date
Minimum magnitude displayed is 2.5.

沿岸の水温

地名 気温

Stations

最寄りの気象観測所

観測所位置 温度 体感気温(寒さ) 露点温度 湿度 Precip. 高度 更新日時 タイプする
                   

Watches & Warnings

There are currently no watches in effect.